Time;durP1;ratioP1;P1;durP2;ratioP2;P2;SDS_P1;SDS_P2;PMS_P1;PMS_P2;Temp;Humidity;BMP_temperature;BMP_pressure;BME280_temperature;BME280_humidity;BME280_pressure;Samples;Min_cycle;Max_cycle;Signal;HPM_P1;HPM_P2
2023/03/28 00:00:45;;;;;;;6.23;3.73;;;;;;;;;;5035274;28;20229;-85
2023/03/28 00:03:17;;;;;;;4.30;3.47;;;;;;;;;;5042632;28;20234;-86
2023/03/28 00:05:47;;;;;;;5.63;3.50;;;;;;;;;;5047026;28;20645;-86
2023/03/28 00:08:15;;;;;;;5.70;3.27;;;;;;;;;;5052715;28;20653;-86
2023/03/28 00:10:42;;;;;;;4.30;3.67;;;;;;;;;;5055058;28;20211;-86
2023/03/28 00:13:09;;;;;;;6.57;4.17;;;;;;;;;;5051428;28;20270;-86
2023/03/28 00:15:38;;;;;;;6.70;3.97;;;;;;;;;;5034921;28;20207;-86
2023/03/28 00:18:07;;;;;;;6.27;4.00;;;;;;;;;;5049471;28;20225;-86
2023/03/28 00:20:39;;;;;;;7.33;4.03;;;;;;;;;;5054895;28;20214;-86
2023/03/28 00:23:06;;;;;;;8.90;4.43;;;;;;;;;;5054081;28;20658;-86
2023/03/28 00:25:34;;;;;;;6.33;3.57;;;;;;;;;;5055061;28;20288;-87
2023/03/28 00:28:01;;;;;;;4.70;3.33;;;;;;;;;;5034288;28;20249;-87
2023/03/28 00:30:28;;;;;;;6.27;3.43;;;;;;;;;;5034910;28;20629;-86
2023/03/28 00:32:56;;;;;;;3.20;2.90;;;;;;;;;;5033941;28;20711;-86
2023/03/28 00:35:23;;;;;;;6.60;4.27;;;;;;;;;;5035041;28;20206;-86
2023/03/28 00:37:56;;;;;;;5.70;3.23;;;;;;;;;;5034197;28;20234;-86
2023/03/28 00:40:24;;;;;;;3.10;2.80;;;;;;;;;;5034858;28;20632;-86
2023/03/28 00:42:51;;;;;;;3.50;2.80;;;;;;;;;;5033760;28;20321;-86
2023/03/28 00:45:20;;;;;;;6.93;2.97;;;;;;;;;;5034714;28;20211;-86
2023/03/28 00:47:50;;;;;;;5.33;3.33;;;;;;;;;;5033896;28;20234;-86
2023/03/28 00:50:19;;;;;;;6.83;2.80;;;;;;;;;;5034671;28;20281;-86
2023/03/28 00:52:48;;;;;;;4.70;3.07;;;;;;;;;;5033623;28;20262;-86
2023/03/28 00:55:19;;;;;;;4.83;3.13;;;;;;;;;;5036905;28;20199;-86
2023/03/28 00:57:47;;;;;;;3.90;2.57;;;;;;;;;;5033758;28;20230;-86
2023/03/28 01:00:17;;;;;;;5.47;2.93;;;;;;;;;;5034277;28;20597;-86
2023/03/28 01:02:49;;;;;;;4.90;2.90;;;;;;;;;;5033079;28;20741;-86
2023/03/28 01:05:17;;;;;;;4.17;2.90;;;;;;;;;;5043019;28;20198;-86
2023/03/28 01:07:46;;;;;;;3.30;3.00;;;;;;;;;;5033435;28;20239;-86
2023/03/28 01:10:14;;;;;;;3.40;2.87;;;;;;;;;;5050042;28;20220;-86
2023/03/28 01:12:43;;;;;;;3.47;2.87;;;;;;;;;;5050262;28;20728;-85
2023/03/28 01:15:10;;;;;;;5.47;3.27;;;;;;;;;;5033814;28;20241;-86
2023/03/28 01:17:40;;;;;;;4.67;2.87;;;;;;;;;;5033298;28;20729;-86
2023/03/28 01:20:16;;;;;;;5.63;2.83;;;;;;;;;;5034117;28;20206;-86
2023/03/28 01:22:58;;;;;;;3.67;3.13;;;;;;;;;;5032837;28;20241;-86
2023/03/28 01:25:37;;;;;;;3.20;2.90;;;;;;;;;;5033576;28;20249;-86
2023/03/28 01:28:12;;;;;;;3.60;2.93;;;;;;;;;;5033027;28;20881;-86
2023/03/28 01:30:56;;;;;;;6.37;3.40;;;;;;;;;;5033758;28;20531;-86
2023/03/28 01:33:46;;;;;;;3.57;2.97;;;;;;;;;;5032918;28;20701;-86
2023/03/28 01:36:46;;;;;;;4.97;2.93;;;;;;;;;;5032969;28;20585;-85
2023/03/28 01:39:18;;;;;;;6.73;3.50;;;;;;;;;;5033572;28;20214;-86
2023/03/28 01:41:49;;;;;;;4.80;3.40;;;;;;;;;;5032828;28;20262;-86
2023/03/28 01:44:20;;;;;;;7.73;3.30;;;;;;;;;;5033248;28;20186;-86
2023/03/28 01:46:52;;;;;;;6.43;3.40;;;;;;;;;;5032873;28;20227;-86
2023/03/28 01:49:22;;;;;;;4.60;3.10;;;;;;;;;;5033556;28;20191;-86
2023/03/28 01:51:53;;;;;;;4.00;3.00;;;;;;;;;;5032707;28;20234;-86
2023/03/28 01:54:28;;;;;;;8.90;3.60;;;;;;;;;;5032955;28;20199;-86
2023/03/28 01:56:59;;;;;;;6.73;3.50;;;;;;;;;;5042839;28;20635;-86
2023/03/28 01:59:28;;;;;;;4.40;3.27;;;;;;;;;;5039655;28;20297;-86
2023/03/28 02:01:58;;;;;;;5.50;3.33;;;;;;;;;;5032504;28;20245;-86
2023/03/28 02:04:28;;;;;;;6.63;3.83;;;;;;;;;;5033297;28;20615;-85
2023/03/28 02:06:56;;;;;;;4.53;3.43;;;;;;;;;;5037521;28;20249;-86
2023/03/28 02:09:25;;;;;;;5.67;3.27;;;;;;;;;;5052673;28;20210;-86
2023/03/28 02:11:55;;;;;;;7.40;3.63;;;;;;;;;;5051761;28;20242;-85
2023/03/28 02:14:24;;;;;;;3.50;2.77;;;;;;;;;;5047608;28;20580;-86
2023/03/28 02:16:53;;;;;;;4.23;3.30;;;;;;;;;;5032487;28;20234;-86
2023/03/28 02:19:23;;;;;;;4.57;3.53;;;;;;;;;;5032983;28;20258;-86
2023/03/28 02:21:52;;;;;;;3.43;3.17;;;;;;;;;;5031937;28;20300;-86
2023/03/28 02:24:19;;;;;;;3.77;3.47;;;;;;;;;;5032749;28;20221;-86
2023/03/28 02:26:48;;;;;;;4.97;3.00;;;;;;;;;;5031841;28;20260;-86
2023/03/28 02:29:16;;;;;;;4.40;3.07;;;;;;;;;;5046866;28;20213;-86
2023/03/28 02:31:43;;;;;;;4.27;2.97;;;;;;;;;;5036518;28;20321;-86
2023/03/28 02:34:11;;;;;;;6.47;3.23;;;;;;;;;;5038066;28;20209;-86
2023/03/28 02:36:46;;;;;;;3.77;2.90;;;;;;;;;;5051792;28;20779;-86
2023/03/28 02:39:18;;;;;;;9.20;3.70;;;;;;;;;;5052100;28;20744;-86
2023/03/28 02:41:49;;;;;;;9.83;3.43;;;;;;;;;;5051766;28;20237;-85
2023/03/28 02:44:28;;;;;;;7.17;4.30;;;;;;;;;;5046067;28;20293;-86
2023/03/28 02:46:59;;;;;;;6.20;3.47;;;;;;;;;;5036736;28;20229;-86
2023/03/28 02:49:32;;;;;;;10.47;3.13;;;;;;;;;;5051961;28;20717;-86
2023/03/28 02:52:08;;;;;;;5.07;3.20;;;;;;;;;;5051551;28;20241;-86
2023/03/28 02:54:36;;;;;;;7.93;3.30;;;;;;;;;;5032525;28;20202;-85
2023/03/28 02:57:05;;;;;;;5.50;3.07;;;;;;;;;;5044245;28;20240;-85
2023/03/28 02:59:36;;;;;;;6.80;3.73;;;;;;;;;;5038346;28;20227;-86
2023/03/28 03:02:04;;;;;;;3.50;3.30;;;;;;;;;;5031092;28;20607;-86
2023/03/28 03:04:31;;;;;;;6.77;3.13;;;;;;;;;;5032013;28;20207;-86
2023/03/28 03:07:01;;;;;;;6.50;3.63;;;;;;;;;;5031283;28;20281;-86
2023/03/28 03:09:28;;;;;;;8.50;3.70;;;;;;;;;;5032013;28;20202;-86
2023/03/28 03:11:55;;;;;;;6.53;3.57;;;;;;;;;;5031122;28;20328;-85
2023/03/28 03:14:22;;;;;;;4.77;3.00;;;;;;;;;;5031935;28;20217;-86
2023/03/28 03:16:51;;;;;;;4.90;3.93;;;;;;;;;;5051210;28;20237;-86
2023/03/28 03:19:18;;;;;;;4.47;3.43;;;;;;;;;;5051624;28;20753;-86
2023/03/28 03:21:45;;;;;;;3.37;3.17;;;;;;;;;;5050879;28;20237;-86
2023/03/28 03:24:13;;;;;;;4.50;3.53;;;;;;;;;;5051510;28;20670;-86
2023/03/28 03:26:40;;;;;;;5.30;3.30;;;;;;;;;;5051220;28;20233;-86
2023/03/28 03:29:08;;;;;;;5.30;3.43;;;;;;;;;;5031467;28;20230;-85
2023/03/28 03:31:35;;;;;;;7.57;3.53;;;;;;;;;;5030241;28;20245;-86
2023/03/28 03:34:04;;;;;;;6.93;3.90;;;;;;;;;;5051351;28;20294;-86
2023/03/28 03:36:31;;;;;;;4.63;3.83;;;;;;;;;;5051174;28;20244;-85
2023/03/28 03:38:58;;;;;;;5.73;3.90;;;;;;;;;;5052434;28;20229;-85
2023/03/28 03:41:25;;;;;;;8.00;3.37;;;;;;;;;;5054749;28;20322;-85
2023/03/28 03:43:52;;;;;;;7.03;3.13;;;;;;;;;;5054306;28;20212;-85
2023/03/28 03:46:20;;;;;;;4.13;3.37;;;;;;;;;;5055151;28;20208;-85
2023/03/28 03:48:47;;;;;;;5.33;3.63;;;;;;;;;;5055545;28;20221;-85
2023/03/28 03:51:16;;;;;;;9.07;3.80;;;;;;;;;;5054825;28;20247;-85
2023/03/28 03:53:43;;;;;;;7.37;3.63;;;;;;;;;;5055596;28;20244;-85
2023/03/28 03:56:11;;;;;;;7.63;3.20;;;;;;;;;;5054974;28;20209;-86
2023/03/28 03:58:38;;;;;;;5.57;3.40;;;;;;;;;;5055210;28;20209;-86
2023/03/28 04:01:08;;;;;;;8.37;3.50;;;;;;;;;;5055101;28;20262;-86
2023/03/28 04:03:36;;;;;;;7.03;3.90;;;;;;;;;;5055188;28;20306;-86
2023/03/28 04:06:04;;;;;;;4.50;3.50;;;;;;;;;;5052992;28;20202;-85
2023/03/28 04:08:32;;;;;;;3.93;3.20;;;;;;;;;;5034546;28;20237;-85
2023/03/28 04:10:59;;;;;;;4.73;3.53;;;;;;;;;;5035667;28;20212;-86
2023/03/28 04:13:26;;;;;;;4.17;3.77;;;;;;;;;;5034801;28;20238;-86
2023/03/28 04:15:53;;;;;;;9.17;3.77;;;;;;;;;;5035481;28;20222;-86
2023/03/28 04:18:20;;;;;;;4.03;3.37;;;;;;;;;;5034536;28;20650;-86
2023/03/28 04:20:52;;;;;;;10.43;3.97;;;;;;;;;;5034687;28;20714;-86
2023/03/28 04:23:24;;;;;;;7.60;4.80;;;;;;;;;;5034465;28;20245;-86
2023/03/28 04:25:54;;;;;;;9.33;3.77;;;;;;;;;;5034884;28;20284;-86
2023/03/28 04:28:24;;;;;;;9.93;3.97;;;;;;;;;;5034235;28;20233;-86
2023/03/28 04:30:53;;;;;;;7.27;4.57;;;;;;;;;;5034923;28;20203;-86
2023/03/28 04:33:23;;;;;;;16.17;6.53;;;;;;;;;;5034047;28;20237;-86
2023/03/28 04:35:55;;;;;;;14.50;5.30;;;;;;;;;;5051620;28;20281;-86
2023/03/28 04:38:24;;;;;;;29.17;13.23;;;;;;;;;;5054115;28;20243;-86
2023/03/28 04:40:56;;;;;;;12.43;4.37;;;;;;;;;;5054309;28;20225;-86
2023/03/28 04:43:23;;;;;;;6.00;3.67;;;;;;;;;;5053686;28;20648;-86
2023/03/28 04:45:50;;;;;;;3.73;3.37;;;;;;;;;;5035759;28;20206;-86
2023/03/28 04:48:17;;;;;;;7.73;4.00;;;;;;;;;;5033863;28;20241;-86
2023/03/28 04:50:44;;;;;;;7.50;4.80;;;;;;;;;;5034077;28;20217;-86
2023/03/28 04:53:11;;;;;;;10.90;6.73;;;;;;;;;;5033721;28;20315;-86
2023/03/28 04:55:39;;;;;;;8.07;5.47;;;;;;;;;;5034589;28;20210;-86
2023/03/28 04:58:07;;;;;;;6.50;4.60;;;;;;;;;;5033729;28;20241;-86
2023/03/28 05:00:35;;;;;;;9.50;4.10;;;;;;;;;;5034471;28;20227;-86
2023/03/28 05:03:03;;;;;;;6.03;4.33;;;;;;;;;;5033393;28;20268;-86
2023/03/28 05:05:30;;;;;;;8.50;4.10;;;;;;;;;;5034213;28;20550;-86
2023/03/28 05:07:57;;;;;;;12.97;4.13;;;;;;;;;;5033586;28;20314;-85
2023/03/28 05:10:24;;;;;;;4.80;3.77;;;;;;;;;;5033941;28;20615;-85
2023/03/28 05:12:51;;;;;;;6.23;4.07;;;;;;;;;;5033347;28;20264;-85
2023/03/28 05:15:20;;;;;;;6.03;4.10;;;;;;;;;;5033833;28;20209;-85
2023/03/28 05:17:47;;;;;;;7.00;4.20;;;;;;;;;;5033585;28;20246;-85
2023/03/28 05:20:15;;;;;;;5.47;4.30;;;;;;;;;;5034042;28;20227;-85
2023/03/28 05:22:42;;;;;;;6.97;5.03;;;;;;;;;;5032805;28;20570;-84
2023/03/28 05:25:10;;;;;;;7.03;4.70;;;;;;;;;;5071798;22;20243;-89
2023/03/28 05:27:37;;;;;;;12.53;4.47;;;;;;;;;;5074800;28;20231;-89
2023/03/28 05:30:05;;;;;;;7.80;4.30;;;;;;;;;;5075194;28;20712;-89
2023/03/28 05:32:33;;;;;;;7.23;3.30;;;;;;;;;;5074575;28;20232;-89
2023/03/28 05:35:00;;;;;;;9.10;3.93;;;;;;;;;;5061281;28;20244;-88
2023/03/28 05:37:27;;;;;;;8.50;4.13;;;;;;;;;;5054367;28;20539;-88
2023/03/28 05:39:54;;;;;;;9.30;4.43;;;;;;;;;;5054965;28;20227;-89
2023/03/28 05:42:21;;;;;;;4.33;3.97;;;;;;;;;;5054348;28;20237;-88
2023/03/28 05:44:48;;;;;;;6.27;4.63;;;;;;;;;;5055001;28;20233;-89
2023/03/28 05:47:15;;;;;;;8.93;4.70;;;;;;;;;;5054463;28;20240;-89
2023/03/28 05:49:44;;;;;;;8.53;4.63;;;;;;;;;;5054560;28;20215;-88
2023/03/28 05:52:11;;;;;;;7.37;4.33;;;;;;;;;;5054374;28;20241;-89
2023/03/28 05:54:38;;;;;;;10.40;4.80;;;;;;;;;;5055066;28;20232;-89
2023/03/28 05:57:05;;;;;;;8.63;4.53;;;;;;;;;;5054150;28;20244;-90
2023/03/28 05:59:32;;;;;;;7.37;4.50;;;;;;;;;;5054956;28;20216;-89
2023/03/28 06:02:02;;;;;;;13.77;4.47;;;;;;;;;;5053194;28;20234;-89
2023/03/28 06:04:52;;;;;;;7.10;4.80;;;;;;;;;;5055571;28;20229;-89
2023/03/28 06:07:20;;;;;;;8.37;5.03;;;;;;;;;;5058152;28;20237;-89
2023/03/28 06:09:47;;;;;;;10.77;5.40;;;;;;;;;;5057303;28;20211;-89
2023/03/28 06:12:14;;;;;;;10.23;4.60;;;;;;;;;;5057262;28;20245;-89
2023/03/28 06:14:42;;;;;;;3.97;3.47;;;;;;;;;;5059397;28;20228;-89
2023/03/28 06:17:09;;;;;;;6.17;4.47;;;;;;;;;;5057045;28;20248;-90
2023/03/28 06:19:36;;;;;;;10.73;4.43;;;;;;;;;;5055623;28;20204;-89
2023/03/28 06:22:03;;;;;;;6.77;4.50;;;;;;;;;;5055017;28;20244;-89
2023/03/28 06:24:31;;;;;;;9.00;5.00;;;;;;;;;;5054797;28;20237;-89
2023/03/28 06:26:58;;;;;;;7.33;4.80;;;;;;;;;;5054404;28;20315;-90
2023/03/28 06:29:25;;;;;;;7.20;4.40;;;;;;;;;;5054623;28;20625;-89
2023/03/28 06:31:52;;;;;;;5.97;4.37;;;;;;;;;;5054233;28;20225;-89
2023/03/28 06:34:20;;;;;;;5.93;3.50;;;;;;;;;;5055065;28;20241;-90
2023/03/28 06:36:47;;;;;;;5.97;4.23;;;;;;;;;;5056491;28;20325;-89
2023/03/28 06:39:55;;;;;;;7.93;4.13;;;;;;;;;;5065196;28;20202;-89
2023/03/28 06:42:43;;;;;;;12.87;5.20;;;;;;;;;;4998814;28;20733;-89
2023/03/28 06:45:14;;;;;;;11.03;5.03;;;;;;;;;;4996600;28;20306;-90
2023/03/28 06:47:42;;;;;;;7.57;4.60;;;;;;;;;;4992759;28;20239;-90
2023/03/28 06:50:09;;;;;;;13.93;4.93;;;;;;;;;;5016121;28;20259;-90
2023/03/28 06:52:36;;;;;;;10.57;4.67;;;;;;;;;;5054489;28;20261;-90
2023/03/28 06:55:03;;;;;;;9.07;3.63;;;;;;;;;;5054241;28;20226;-89
2023/03/28 06:57:32;;;;;;;7.97;3.93;;;;;;;;;;5052146;28;20232;-89
2023/03/28 06:59:59;;;;;;;12.43;3.93;;;;;;;;;;5048700;28;20205;-89
2023/03/28 07:02:28;;;;;;;7.93;3.80;;;;;;;;;;5053678;28;20234;-88
2023/03/28 07:04:55;;;;;;;5.90;3.20;;;;;;;;;;5055500;28;20244;-89
2023/03/28 07:07:22;;;;;;;5.27;3.40;;;;;;;;;;5055161;28;20238;-89
2023/03/28 07:09:50;;;;;;;7.63;2.90;;;;;;;;;;5055378;28;20244;-89
2023/03/28 07:12:18;;;;;;;6.97;3.30;;;;;;;;;;5048302;28;20241;-89
2023/03/28 07:14:46;;;;;;;5.87;3.20;;;;;;;;;;5051619;28;20661;-91
2023/03/28 07:17:13;;;;;;;10.77;3.80;;;;;;;;;;5055155;28;20234;-91
2023/03/28 07:19:43;;;;;;;7.10;3.40;;;;;;;;;;5054915;28;20723;-90
2023/03/28 07:22:10;;;;;;;7.07;2.97;;;;;;;;;;5055259;28;20238;-89
2023/03/28 07:24:37;;;;;;;8.90;3.60;;;;;;;;;;5055541;28;20701;-91
2023/03/28 07:27:05;;;;;;;7.80;2.97;;;;;;;;;;5054929;28;20724;-89
2023/03/28 07:29:32;;;;;;;5.73;3.00;;;;;;;;;;5055808;28;20205;-90
2023/03/28 07:31:59;;;;;;;5.07;2.80;;;;;;;;;;5054178;28;20244;-91
2023/03/28 07:34:27;;;;;;;5.60;3.90;;;;;;;;;;5038792;28;20234;-90
2023/03/28 07:36:57;;;;;;;4.20;2.90;;;;;;;;;;5055795;28;20241;-89
2023/03/28 07:39:24;;;;;;;7.23;3.30;;;;;;;;;;5055486;28;20190;-89
2023/03/28 07:41:51;;;;;;;6.20;3.20;;;;;;;;;;5055260;28;20231;-89
2023/03/28 07:44:20;;;;;;;8.17;3.20;;;;;;;;;;5054694;28;20226;-88
2023/03/28 07:46:50;;;;;;;7.23;3.17;;;;;;;;;;5055125;28;20233;-89
2023/03/28 07:49:19;;;;;;;5.67;2.87;;;;;;;;;;5055738;28;20209;-92
2023/03/28 07:51:46;;;;;;;6.60;3.27;;;;;;;;;;5054435;28;20234;-91
2023/03/28 07:54:17;;;;;;;7.10;3.40;;;;;;;;;;5057515;28;20229;-92
2023/03/28 07:59:26;;;;;;;8.03;3.07;;;;;;;;;;5035676;28;20228;-91
2023/03/28 08:01:53;;;;;;;3.07;2.80;;;;;;;;;;5046892;28;20237;-89
2023/03/28 08:04:20;;;;;;;8.37;3.17;;;;;;;;;;5053185;28;20229;-89
2023/03/28 08:06:47;;;;;;;14.63;3.20;;;;;;;;;;5053927;28;20226;-89
2023/03/28 08:09:16;;;;;;;3.40;3.00;;;;;;;;;;5054136;28;20212;-89
2023/03/28 08:11:44;;;;;;;5.07;2.63;;;;;;;;;;5053301;28;20230;-88
2023/03/28 08:14:12;;;;;;;11.13;2.97;;;;;;;;;;5053228;28;20256;-88
2023/03/28 08:16:49;;;;;;;9.43;3.00;;;;;;;;;;5052826;28;20245;-87
2023/03/28 08:19:22;;;;;;;7.93;2.70;;;;;;;;;;5053205;28;20288;-87
2023/03/28 08:22:09;;;;;;;7.07;2.80;;;;;;;;;;5052532;28;20670;-88
2023/03/28 08:24:39;;;;;;;7.80;2.70;;;;;;;;;;5053822;28;20234;-87
2023/03/28 08:27:06;;;;;;;6.57;2.73;;;;;;;;;;5056364;28;20682;-88
2023/03/28 08:29:33;;;;;;;11.40;3.07;;;;;;;;;;5056786;28;20202;-87
2023/03/28 08:32:02;;;;;;;9.70;2.77;;;;;;;;;;5055442;28;20255;-86
2023/03/28 08:34:29;;;;;;;8.57;2.80;;;;;;;;;;5055629;28;20588;-85
2023/03/28 08:36:58;;;;;;;6.83;2.80;;;;;;;;;;5056151;28;20226;-87
2023/03/28 08:39:25;;;;;;;7.10;2.90;;;;;;;;;;5056241;28;20208;-87
2023/03/28 08:42:09;;;;;;;6.63;2.67;;;;;;;;;;5056085;28;20237;-87
2023/03/28 08:44:48;;;;;;;6.87;2.90;;;;;;;;;;5055685;28;20261;-88
2023/03/28 08:47:19;;;;;;;6.23;2.40;;;;;;;;;;5054615;28;20240;-84
2023/03/28 08:49:47;;;;;;;5.00;2.43;;;;;;;;;;5054937;28;20213;-84
2023/03/28 08:52:19;;;;;;;6.40;2.60;;;;;;;;;;5054491;28;20237;-84
2023/03/28 08:54:48;;;;;;;6.63;2.40;;;;;;;;;;5055175;28;20332;-85
2023/03/28 08:57:17;;;;;;;4.23;2.10;;;;;;;;;;5054260;28;20356;-84
2023/03/28 08:59:49;;;;;;;5.97;2.10;;;;;;;;;;5054816;28;20190;-85
2023/03/28 09:02:18;;;;;;;3.93;2.27;;;;;;;;;;5055037;28;20241;-87
2023/03/28 09:04:45;;;;;;;6.10;2.20;;;;;;;;;;5055466;28;20222;-86
2023/03/28 09:07:16;;;;;;;4.87;1.80;;;;;;;;;;5054967;28;20237;-85
2023/03/28 09:09:48;;;;;;;5.33;1.83;;;;;;;;;;5054638;28;20210;-83
2023/03/28 09:12:27;;;;;;;5.37;2.40;;;;;;;;;;5054843;28;20241;-84
2023/03/28 09:15:08;;;;;;;4.50;2.20;;;;;;;;;;5054796;28;20226;-87
2023/03/28 09:17:43;;;;;;;3.83;2.00;;;;;;;;;;5051737;28;20245;-85
2023/03/28 09:20:13;;;;;;;4.67;2.10;;;;;;;;;;5055643;28;20197;-86
2023/03/28 09:22:46;;;;;;;5.87;2.00;;;;;;;;;;5054642;28;20234;-85
2023/03/28 09:25:19;;;;;;;5.37;1.93;;;;;;;;;;5055316;28;20230;-86
2023/03/28 09:27:50;;;;;;;7.20;2.00;;;;;;;;;;5055216;28;20807;-85
2023/03/28 09:30:19;;;;;;;3.63;1.50;;;;;;;;;;5054722;28;20613;-85
2023/03/28 09:32:48;;;;;;;2.80;1.70;;;;;;;;;;5052949;28;20911;-84
2023/03/28 09:35:16;;;;;;;2.60;1.77;;;;;;;;;;5054943;28;20316;-87
2023/03/28 09:37:44;;;;;;;6.07;2.27;;;;;;;;;;5053634;28;20321;-88
2023/03/28 09:40:16;;;;;;;3.80;1.83;;;;;;;;;;5055176;28;20210;-88
2023/03/28 09:42:48;;;;;;;2.33;1.57;;;;;;;;;;5053156;28;20713;-87
2023/03/28 09:45:23;;;;;;;4.33;1.80;;;;;;;;;;5035284;28;20239;-87
2023/03/28 09:47:52;;;;;;;3.50;1.73;;;;;;;;;;5035277;28;20226;-87
2023/03/28 09:50:20;;;;;;;3.43;1.80;;;;;;;;;;5035646;28;20210;-86
2023/03/28 09:52:49;;;;;;;5.90;2.40;;;;;;;;;;5035615;28;20261;-88
2023/03/28 09:55:17;;;;;;;4.90;1.63;;;;;;;;;;5045326;28;20686;-88
2023/03/28 09:58:01;;;;;;;5.30;2.00;;;;;;;;;;5054608;28;20992;-87
2023/03/28 10:00:28;;;;;;;4.33;1.47;;;;;;;;;;5055223;28;20285;-87
2023/03/28 10:02:56;;;;;;;3.90;1.70;;;;;;;;;;5054389;28;20234;-87
2023/03/28 10:05:35;;;;;;;4.97;1.70;;;;;;;;;;5055317;28;20271;-85
2023/03/28 10:08:03;;;;;;;3.83;1.80;;;;;;;;;;5054157;28;20237;-86
2023/03/28 10:10:31;;;;;;;4.10;1.37;;;;;;;;;;5054852;28;20206;-86
2023/03/28 10:12:58;;;;;;;3.80;1.57;;;;;;;;;;5053417;28;20828;-84
2023/03/28 10:15:39;;;;;;;3.30;1.40;;;;;;;;;;5053403;28;20237;-84
2023/03/28 10:18:08;;;;;;;3.50;1.40;;;;;;;;;;5053143;28;20590;-85
2023/03/28 10:20:37;;;;;;;1.57;1.40;;;;;;;;;;5053923;28;20206;-86
2023/03/28 10:23:04;;;;;;;3.50;1.50;;;;;;;;;;5052493;28;20238;-85
2023/03/28 10:25:36;;;;;;;2.67;1.37;;;;;;;;;;5052901;28;20237;-86
2023/03/28 10:28:04;;;;;;;3.37;1.53;;;;;;;;;;5053288;28;20233;-86
2023/03/28 10:30:32;;;;;;;2.30;1.20;;;;;;;;;;5053653;28;20212;-86
2023/03/28 10:33:23;;;;;;;3.17;1.53;;;;;;;;;;5052721;28;20242;-86
2023/03/28 10:35:57;;;;;;;4.30;1.97;;;;;;;;;;5033629;28;20571;-86
2023/03/28 10:38:25;;;;;;;4.50;1.90;;;;;;;;;;5053023;28;20234;-85
2023/03/28 10:40:53;;;;;;;2.80;1.47;;;;;;;;;;5053420;28;20214;-86
2023/03/28 10:43:20;;;;;;;4.60;2.43;;;;;;;;;;5052398;28;20717;-86
2023/03/28 10:45:49;;;;;;;3.97;1.60;;;;;;;;;;5052603;28;20225;-86
2023/03/28 10:48:17;;;;;;;1.87;1.57;;;;;;;;;;5052264;28;20248;-86
2023/03/28 10:50:45;;;;;;;2.87;1.73;;;;;;;;;;5053135;28;20218;-86
2023/03/28 10:53:23;;;;;;;2.10;1.23;;;;;;;;;;5052345;28;20239;-86
2023/03/28 10:55:56;;;;;;;2.70;1.50;;;;;;;;;;5060011;28;20266;-79
2023/03/28 10:58:30;;;;;;;2.10;1.30;;;;;;;;;;5070312;28;20237;-79
2023/03/28 11:01:01;;;;;;;1.77;1.10;;;;;;;;;;5071094;28;20239;-79
2023/03/28 11:03:39;;;;;;;1.58;1.40;;;;;;;;;;5070531;28;20233;-79
2023/03/28 11:06:09;;;;;;;2.70;1.37;;;;;;;;;;5061486;28;20702;-83
2023/03/28 11:08:43;;;;;;;1.57;1.10;;;;;;;;;;5050772;28;20229;-82
2023/03/28 11:11:15;;;;;;;5.17;1.77;;;;;;;;;;5051294;28;20213;-82
2023/03/28 11:13:47;;;;;;;2.85;1.48;;;;;;;;;;5051814;28;20925;-84
2023/03/28 11:16:20;;;;;;;5.75;1.40;;;;;;;;;;5052045;28;20205;-85
2023/03/28 11:19:00;;;;;;;2.15;1.27;;;;;;;;;;5053437;28;20236;-89
2023/03/28 11:21:30;;;;;;;2.50;1.00;;;;;;;;;;5053274;28;20221;-90
2023/03/28 11:24:08;;;;;;;2.33;1.27;;;;;;;;;;5053593;28;20743;-89
2023/03/28 11:26:40;;;;;;;3.75;1.40;;;;;;;;;;5083255;22;20233;-89
2023/03/28 11:29:13;;;;;;;1.35;0.93;;;;;;;;;;5051302;28;20804;-90
2023/03/28 11:31:43;;;;;;;2.22;1.13;;;;;;;;;;5051243;28;20271;-93
2023/03/28 11:34:12;;;;;;;1.13;1.02;;;;;;;;;;5052030;28;20209;-90
2023/03/28 11:36:43;;;;;;;2.33;1.40;;;;;;;;;;5051036;28;20260;-90
2023/03/28 11:39:15;;;;;;;1.75;1.23;;;;;;;;;;5051551;28;20665;-90
2023/03/28 11:41:43;;;;;;;2.28;1.65;;;;;;;;;;5051038;28;20234;-90
2023/03/28 11:44:12;;;;;;;2.80;1.30;;;;;;;;;;5051906;28;20213;-90
2023/03/28 11:46:41;;;;;;;3.25;1.25;;;;;;;;;;5051501;28;20241;-92
2023/03/28 11:49:12;;;;;;;2.10;0.95;;;;;;;;;;5051878;28;20658;-90
2023/03/28 11:51:42;;;;;;;2.53;1.13;;;;;;;;;;5054449;28;20234;-92
2023/03/28 11:54:12;;;;;;;2.45;1.05;;;;;;;;;;5051535;28;20213;-91
2023/03/28 11:56:47;;;;;;;2.55;1.30;;;;;;;;;;5051472;28;20237;-90
2023/03/28 11:59:18;;;;;;;3.58;1.35;;;;;;;;;;5051238;28;20805;-90
2023/03/28 12:01:46;;;;;;;4.25;1.60;;;;;;;;;;5054064;28;20364;-91
2023/03/28 12:04:15;;;;;;;2.22;1.08;;;;;;;;;;5055582;28;20190;-90
2023/03/28 12:06:46;;;;;;;1.08;0.93;;;;;;;;;;5054741;28;20308;-91
2023/03/28 12:09:15;;;;;;;2.08;1.60;;;;;;;;;;5055344;28;20206;-90
2023/03/28 12:11:45;;;;;;;2.70;1.38;;;;;;;;;;5054592;28;20230;-90
2023/03/28 12:14:21;;;;;;;4.18;2.75;;;;;;;;;;5055214;28;20202;-90
2023/03/28 12:16:49;;;;;;;6.07;1.60;;;;;;;;;;5054692;28;20236;-90
2023/03/28 12:19:20;;;;;;;2.78;1.20;;;;;;;;;;5054858;28;20210;-90
2023/03/28 12:21:50;;;;;;;2.30;1.52;;;;;;;;;;5054351;28;20258;-90
2023/03/28 12:24:22;;;;;;;2.53;1.67;;;;;;;;;;5055090;28;20234;-91
2023/03/28 12:26:55;;;;;;;2.70;1.70;;;;;;;;;;5054097;28;20233;-90
2023/03/28 12:29:29;;;;;;;1.88;1.52;;;;;;;;;;5054377;28;20723;-91
2023/03/28 12:31:59;;;;;;;3.97;1.52;;;;;;;;;;5054280;28;20668;-90
2023/03/28 12:34:29;;;;;;;2.33;1.52;;;;;;;;;;5044610;28;20210;-91
2023/03/28 12:36:58;;;;;;;4.97;1.48;;;;;;;;;;5034334;28;20234;-89
2023/03/28 12:39:34;;;;;;;4.28;1.17;;;;;;;;;;5038555;28;20217;-90
2023/03/28 12:42:02;;;;;;;3.45;1.88;;;;;;;;;;5053803;28;20244;-91
2023/03/28 12:44:34;;;;;;;3.33;1.40;;;;;;;;;;5054314;28;20198;-91
2023/03/28 12:47:05;;;;;;;2.15;1.23;;;;;;;;;;5054069;28;20258;-90
2023/03/28 12:49:35;;;;;;;2.10;0.98;;;;;;;;;;5054527;28;20194;-90
2023/03/28 12:52:03;;;;;;;3.50;1.42;;;;;;;;;;5054152;28;20301;-91
2023/03/28 12:54:33;;;;;;;2.35;1.35;;;;;;;;;;5054199;28;20209;-91
2023/03/28 12:57:02;;;;;;;5.25;1.80;;;;;;;;;;5053992;28;20238;-91
2023/03/28 12:59:45;;;;;;;2.60;1.30;;;;;;;;;;5054246;28;20201;-91
2023/03/28 13:02:15;;;;;;;4.50;1.63;;;;;;;;;;5053627;28;20724;-91
2023/03/28 13:04:44;;;;;;;4.75;4.25;;;;;;;;;;5054193;28;20692;-92
2023/03/28 13:07:15;;;;;;;2.80;1.60;;;;;;;;;;5053719;28;20249;-92
2023/03/28 13:09:50;;;;;;;4.22;1.50;;;;;;;;;;5053864;28;20221;-89
2023/03/28 13:12:29;;;;;;;3.42;1.80;;;;;;;;;;5053013;28;20237;-89
2023/03/28 13:15:01;;;;;;;2.22;1.20;;;;;;;;;;5014397;28;20611;-89
2023/03/28 13:17:29;;;;;;;4.03;1.38;;;;;;;;;;5013706;28;20247;-88
2023/03/28 13:20:08;;;;;;;1.90;1.25;;;;;;;;;;5036659;28;20214;-88
2023/03/28 13:22:43;;;;;;;2.03;1.10;;;;;;;;;;5053027;28;20322;-88
2023/03/28 13:25:24;;;;;;;2.83;1.52;;;;;;;;;;5053754;28;20201;-89
2023/03/28 13:27:52;;;;;;;3.33;2.08;;;;;;;;;;5053164;28;20316;-89
2023/03/28 13:30:23;;;;;;;2.35;1.83;;;;;;;;;;5053296;28;20202;-89
2023/03/28 13:32:51;;;;;;;3.33;1.60;;;;;;;;;;5048383;28;20313;-88
2023/03/28 13:35:37;;;;;;;3.13;1.95;;;;;;;;;;5047151;28;20302;-89
2023/03/28 13:38:14;;;;;;;2.78;1.90;;;;;;;;;;5053789;28;20368;-89
2023/03/28 13:40:45;;;;;;;4.00;2.58;;;;;;;;;;5054065;28;20198;-89
2023/03/28 13:43:22;;;;;;;2.97;2.00;;;;;;;;;;5053243;28;20245;-89
2023/03/28 13:45:53;;;;;;;2.45;2.00;;;;;;;;;;5040720;28;20233;-90
2023/03/28 13:48:21;;;;;;;3.42;2.00;;;;;;;;;;5032503;28;20707;-90
2023/03/28 13:50:49;;;;;;;2.83;2.22;;;;;;;;;;5041599;28;20222;-90
2023/03/28 13:53:16;;;;;;;2.10;1.70;;;;;;;;;;5044158;28;20236;-89
2023/03/28 13:55:43;;;;;;;4.35;1.80;;;;;;;;;;5053047;28;20229;-89
2023/03/28 13:58:12;;;;;;;2.60;2.03;;;;;;;;;;5052411;28;20723;-89
2023/03/28 14:00:40;;;;;;;2.00;1.80;;;;;;;;;;5052648;28;20229;-89
2023/03/28 14:03:14;;;;;;;3.83;2.13;;;;;;;;;;5052123;28;20230;-90
2023/03/28 14:05:43;;;;;;;5.20;2.10;;;;;;;;;;5052700;28;20229;-89
2023/03/28 14:08:21;;;;;;;3.67;1.90;;;;;;;;;;5052320;28;20334;-89
2023/03/28 14:10:51;;;;;;;2.03;1.85;;;;;;;;;;5052283;28;20201;-89
2023/03/28 14:13:20;;;;;;;2.58;2.05;;;;;;;;;;5051746;28;20230;-89
2023/03/28 14:15:47;;;;;;;3.67;1.90;;;;;;;;;;5052799;28;20226;-90
2023/03/28 14:18:19;;;;;;;3.65;1.90;;;;;;;;;;5051976;28;20233;-89
2023/03/28 14:20:48;;;;;;;3.53;1.70;;;;;;;;;;5052592;28;20198;-88
2023/03/28 14:23:25;;;;;;;4.00;2.20;;;;;;;;;;5050614;28;20237;-90
2023/03/28 14:25:52;;;;;;;2.38;2.00;;;;;;;;;;5012802;28;20703;-89
2023/03/28 14:28:19;;;;;;;3.50;1.73;;;;;;;;;;5029391;28;20235;-89
2023/03/28 14:30:47;;;;;;;4.72;2.05;;;;;;;;;;5021745;28;20237;-89
2023/03/28 14:33:24;;;;;;;4.50;2.33;;;;;;;;;;5052017;28;20237;-91
2023/03/28 14:35:57;;;;;;;5.25;2.38;;;;;;;;;;5032510;28;20280;-89
2023/03/28 14:38:29;;;;;;;4.95;2.40;;;;;;;;;;5030854;28;20234;-88
2023/03/28 14:41:04;;;;;;;5.22;2.10;;;;;;;;;;5036598;28;20569;-89
2023/03/28 14:43:32;;;;;;;2.30;1.85;;;;;;;;;;5051222;28;20737;-89
2023/03/28 14:46:02;;;;;;;2.92;1.80;;;;;;;;;;5051870;28;20784;-88
2023/03/28 14:48:31;;;;;;;5.32;2.85;;;;;;;;;;5032589;28;20231;-89
2023/03/28 14:51:01;;;;;;;2.97;2.00;;;;;;;;;;5036124;28;20213;-88
2023/03/28 14:53:31;;;;;;;3.72;1.70;;;;;;;;;;5051289;28;20256;-89
2023/03/28 14:56:00;;;;;;;2.65;1.42;;;;;;;;;;5051124;28;20368;-88
2023/03/28 14:58:28;;;;;;;3.42;1.50;;;;;;;;;;5051235;28;20234;-89
2023/03/28 15:00:56;;;;;;;3.22;1.85;;;;;;;;;;5051839;28;20213;-89
2023/03/28 15:03:26;;;;;;;3.25;1.90;;;;;;;;;;5050950;28;20230;-88